Time;durP1;ratioP1;P1;durP2;ratioP2;P2;SDS_P1;SDS_P2;PMS_P1;PMS_P2;Temp;Humidity;BMP_temperature;BMP_pressure;BME280_temperature;BME280_humidity;BME280_pressure;Samples;Min_cycle;Max_cycle;Signal;HPM_P1;HPM_P2
2023/05/27 00:00:48;;;;;;;16.20;4.70;;;7.20;99.90;;;;;;4888074;23;20523;-85
2023/05/27 00:03:29;;;;;;;18.60;4.20;;;8.20;99.90;;;;;;4896834;29;20437;-85
2023/05/27 00:05:54;;;;;;;19.50;4.70;;;7.30;99.90;;;;;;4897642;29;20459;-85
2023/05/27 00:08:20;;;;;;;17.90;4.72;;;7.00;99.90;;;;;;4897019;29;20040;-85
2023/05/27 00:10:47;;;;;;;17.13;4.38;;;7.70;99.90;;;;;;4897259;29;20127;-85
2023/05/27 00:13:22;;;;;;;16.75;4.40;;;7.00;99.90;;;;;;4897511;29;20049;-85
2023/05/27 00:15:47;;;;;;;20.50;5.20;;;7.90;99.90;;;;;;4897906;29;20489;-86
2023/05/27 00:20:51;;;;;;;15.50;4.38;;;6.90;99.90;;;;;;4865930;23;20042;-86
2023/05/27 00:23:38;;;;;;;17.35;5.00;;;7.80;99.90;;;;;;4859663;29;20057;-84
2023/05/27 00:26:25;;;;;;;16.10;4.70;;;7.60;99.90;;;;;;4861202;29;20050;-85
2023/05/27 00:28:51;;;;;;;13.57;4.28;;;6.80;99.90;;;;;;4859696;29;20053;-85
2023/05/27 00:31:35;;;;;;;17.85;4.63;;;7.00;99.90;;;;;;4859914;29;20626;-84
2023/05/27 00:34:01;;;;;;;;;;;7.50;99.90;;;;;;4861632;29;20052;-85
2023/05/27 00:36:27;;;;;;;21.52;5.20;;;7.40;99.90;;;;;;4858977;29;19928;-85
2023/05/27 00:39:08;;;;;;;19.88;4.55;;;7.40;99.90;;;;;;4860528;29;20042;-85
2023/05/27 00:41:34;;;;;;;18.52;5.07;;;6.70;99.90;;;;;;4859468;29;20064;-85
2023/05/27 00:44:18;;;;;;;15.38;4.63;;;5.70;99.90;;;;;;4858843;29;20038;-85
2023/05/27 00:47:02;;;;;;;15.38;4.38;;;6.80;99.90;;;;;;4861208;29;20048;-85
2023/05/27 00:49:37;;;;;;;16.35;5.30;;;7.10;99.90;;;;;;4860216;29;20128;-85
2023/05/27 00:52:22;;;;;;;17.48;4.88;;;6.30;99.90;;;;;;4858889;29;20045;-85
2023/05/27 00:54:48;;;;;;;17.65;4.90;;;6.50;99.90;;;;;;4859901;29;20053;-85
2023/05/27 00:57:35;;;;;;;18.13;4.60;;;6.10;99.90;;;;;;4858364;29;20136;-85
2023/05/27 01:00:00;;;;;;;18.88;4.93;;;6.30;99.90;;;;;;4875100;29;20045;-85
2023/05/27 01:02:26;;;;;;;14.18;4.95;;;7.30;99.90;;;;;;4874663;29;20569;-85
2023/05/27 01:04:52;;;;;;;16.42;4.70;;;6.30;99.90;;;;;;4874213;29;20141;-85
2023/05/27 01:08:17;;;;;;;17.00;4.35;;;6.30;99.90;;;;;;4851674;29;20426;-85
2023/05/27 01:10:56;;;;;;;19.13;4.97;;;5.70;99.90;;;;;;4860383;29;20054;-85
2023/05/27 01:13:49;;;;;;;13.25;4.57;;;7.10;99.90;;;;;;4858300;29;20046;-85
2023/05/27 01:16:37;;;;;;;20.42;4.80;;;6.20;99.90;;;;;;4860415;29;20086;-85
2023/05/27 01:19:50;;;;;;;23.80;5.55;;;6.30;99.90;;;;;;4857864;29;20110;-85
2023/05/27 01:22:18;;;;;;;19.45;5.03;;;6.50;99.90;;;;;;4860159;29;20045;-85
2023/05/27 01:24:44;;;;;;;26.08;5.20;;;7.20;99.90;;;;;;4895839;23;20072;-85
2023/05/27 01:27:28;;;;;;;19.48;5.28;;;6.50;99.90;;;;;;4896263;29;20088;-85
2023/05/27 01:32:48;;;;;;;18.90;5.35;;;6.40;99.90;;;;;;4838941;29;20057;-85
2023/05/27 01:35:32;;;;;;;20.23;4.68;;;6.40;99.90;;;;;;4823643;29;20114;-85
2023/05/27 01:38:01;;;;;;;18.27;5.35;;;6.40;99.90;;;;;;4827671;29;20050;-84
2023/05/27 01:40:28;;;;;;;20.27;5.50;;;7.30;99.90;;;;;;4840713;29;20129;-85
2023/05/27 01:46:25;;;;;;;18.60;5.47;;;6.40;99.90;;;;;;4858338;29;20085;-85
2023/05/27 01:51:26;;;;;;;21.05;5.60;;;6.30;99.90;;;;;;5073769;23;20425;-85
2023/05/27 01:54:17;;;;;;;21.73;5.68;;;6.30;99.90;;;;;;4902708;23;20057;-85
2023/05/27 01:56:56;;;;;;;18.75;5.43;;;6.40;99.90;;;;;;4896680;29;20056;-85
2023/05/27 01:59:28;;;;;;;20.60;5.68;;;6.40;99.90;;;;;;4895223;29;20049;-84
2023/05/27 02:01:54;;;;;;;25.90;5.85;;;7.70;99.90;;;;;;4895395;29;20104;-85
2023/05/27 02:04:40;;;;;;;20.25;6.10;;;6.10;99.90;;;;;;4895315;29;20076;-85
2023/05/27 02:07:05;;;;;;;23.55;5.30;;;6.30;99.90;;;;;;4897414;29;20052;-85
2023/05/27 02:09:46;;;;;;;19.77;5.75;;;7.30;99.90;;;;;;4894908;29;20052;-85
2023/05/27 02:12:12;;;;;;;22.10;5.47;;;5.90;99.90;;;;;;4897155;29;20044;-84
2023/05/27 02:14:53;;;;;;;20.65;5.57;;;6.90;99.90;;;;;;4894960;29;20139;-84
2023/05/27 02:17:18;;;;;;;22.90;7.10;;;7.60;99.90;;;;;;4895592;29;20045;-84
2023/05/27 02:19:59;;;;;;;17.15;5.47;;;6.10;99.90;;;;;;4897114;29;20041;-84
2023/05/27 02:22:26;;;;;;;20.58;5.65;;;7.10;99.90;;;;;;4896545;29;20487;-85
2023/05/27 02:25:05;;;;;;;20.75;5.43;;;6.00;99.90;;;;;;4896763;29;20096;-85
2023/05/27 02:27:52;;;;;;;20.33;6.05;;;6.20;99.90;;;;;;4897069;29;20045;-84
2023/05/27 02:30:17;;;;;;;22.40;5.72;;;6.20;99.90;;;;;;4894602;29;20059;-85
2023/05/27 02:33:01;;;;;;;25.35;6.15;;;7.70;99.90;;;;;;4898052;29;20130;-84
2023/05/27 02:35:30;;;;;;;19.38;6.78;;;7.10;99.90;;;;;;4900446;29;20051;-84
2023/05/27 02:37:56;;;;;;;20.88;5.78;;;6.30;99.90;;;;;;4899464;29;20045;-85
2023/05/27 02:40:34;;;;;;;16.50;5.97;;;7.00;99.90;;;;;;4898615;29;20076;-84
2023/05/27 02:43:00;;;;;;;19.60;5.72;;;6.00;99.90;;;;;;4898089;29;20096;-84
2023/05/27 02:45:44;;;;;;;19.15;5.93;;;5.90;99.90;;;;;;4899846;29;20053;-84
2023/05/27 02:48:09;;;;;;;24.02;5.85;;;6.00;99.90;;;;;;4898511;29;20053;-85
2023/05/27 02:50:35;;;;;;;23.73;6.18;;;5.70;99.90;;;;;;4897972;29;20462;-84
2023/05/27 02:53:52;;;;;;;14.80;5.32;;;5.80;99.90;;;;;;4898512;29;20081;-84
2023/05/27 02:56:42;;;;;;;18.80;5.40;;;6.00;99.90;;;;;;4897987;29;20060;-84
2023/05/27 02:59:27;;;;;;;17.50;5.75;;;5.90;99.90;;;;;;4898265;29;20493;-84
2023/05/27 03:01:52;;;;;;;16.27;6.23;;;6.70;99.90;;;;;;4900216;29;20543;-84
2023/05/27 03:07:07;;;;;;;18.65;6.20;;;6.00;99.90;;;;;;4899594;29;20044;-85
2023/05/27 03:09:51;;;;;;;16.00;5.07;;;5.70;99.90;;;;;;4898154;29;20071;-84
2023/05/27 03:12:35;;;;;;;20.58;5.57;;;6.30;99.90;;;;;;4897756;29;20477;-85
2023/05/27 03:15:01;;;;;;;16.13;6.10;;;6.30;99.90;;;;;;4898511;29;20067;-84
2023/05/27 03:20:00;;;;;;;;;;;6.40;99.90;;;;;;4860439;29;20422;-84
2023/05/27 03:22:26;;;;;;;23.27;5.93;;;6.50;99.90;;;;;;4861214;29;19931;-85
2023/05/27 03:25:07;;;;;;;20.38;6.32;;;7.10;99.90;;;;;;4861910;29;20045;-84
2023/05/27 03:27:34;;;;;;;19.23;5.68;;;6.60;99.90;;;;;;4860621;29;20046;-84
2023/05/27 03:30:18;;;;;;;20.70;6.68;;;7.20;99.90;;;;;;4860222;29;20053;-84
2023/05/27 03:32:46;;;;;;;16.92;5.75;;;8.20;99.90;;;;;;4859831;29;20050;-84
2023/05/27 03:35:11;;;;;;;20.55;6.07;;;7.70;99.90;;;;;;4861758;29;20050;-84
2023/05/27 03:37:37;;;;;;;23.52;6.18;;;7.10;99.90;;;;;;4862228;29;20046;-84
2023/05/27 03:40:04;;;;;;;18.45;5.65;;;7.00;99.90;;;;;;4861591;29;20066;-85
2023/05/27 03:42:42;;;;;;;19.90;6.43;;;7.10;99.90;;;;;;4861207;29;20066;-84
2023/05/27 03:45:08;;;;;;;18.58;6.03;;;7.80;99.90;;;;;;4859886;29;20101;-85
2023/05/27 03:47:34;;;;;;;18.50;5.80;;;7.10;99.90;;;;;;4859925;29;20045;-85
2023/05/27 03:50:15;;;;;;;18.15;5.78;;;7.10;99.90;;;;;;4860876;29;20057;-85
2023/05/27 03:52:41;;;;;;;19.08;5.80;;;7.70;99.90;;;;;;4862034;29;20083;-85
2023/05/27 03:55:26;;;;;;;19.27;5.38;;;7.50;99.90;;;;;;4859667;29;20096;-84
2023/05/27 03:57:51;;;;;;;21.23;5.80;;;8.60;99.90;;;;;;4860574;29;20054;-85
2023/05/27 04:03:45;;;;;;;22.73;6.38;;;7.20;99.90;;;;;;4861635;29;20132;-85
2023/05/27 04:06:11;;;;;;;19.95;6.30;;;6.90;99.90;;;;;;4861026;29;20141;-84
2023/05/27 04:08:43;;;;;;;18.17;5.85;;;7.50;99.90;;;;;;4859269;29;20041;-85
2023/05/27 04:11:12;;;;;;;21.38;5.50;;;7.30;99.90;;;;;;4860118;29;20205;-85
2023/05/27 04:13:50;;;;;;;19.25;5.97;;;6.60;99.90;;;;;;4860398;29;20041;-85
2023/05/27 04:16:15;;;;;;;17.33;5.88;;;7.90;99.90;;;;;;4859080;29;20056;-84
2023/05/27 04:19:07;;;;;;;20.27;6.30;;;7.60;99.90;;;;;;4858599;29;20057;-84
2023/05/27 04:21:48;;;;;;;24.35;6.40;;;6.30;99.90;;;;;;4860583;29;20057;-84
2023/05/27 04:24:17;;;;;;;24.88;6.05;;;7.20;99.90;;;;;;4860766;29;20049;-84
2023/05/27 04:26:51;;;;;;;19.42;5.95;;;7.00;99.90;;;;;;4861374;29;20089;-85
2023/05/27 04:29:17;;;;;;;18.67;6.07;;;8.10;99.90;;;;;;4859110;29;20102;-84
2023/05/27 04:31:48;;;;;;;23.98;6.82;;;7.10;99.90;;;;;;4861144;29;20041;-84
2023/05/27 04:34:14;;;;;;;21.55;6.20;;;7.20;99.90;;;;;;4863932;29;20049;-84
2023/05/27 04:36:40;;;;;;;20.88;5.95;;;7.20;99.90;;;;;;4877845;29;20041;-85
2023/05/27 04:39:07;;;;;;;20.45;5.97;;;7.20;99.90;;;;;;4878856;29;20474;-85
2023/05/27 04:45:38;;;;;;;18.60;5.85;;;6.50;99.90;;;;;;4879316;29;20048;-84
2023/05/27 04:48:03;;;;;;;23.98;5.93;;;7.80;99.90;;;;;;4879123;29;20053;-85
2023/05/27 04:50:29;;;;;;;21.52;6.03;;;7.40;99.90;;;;;;4876906;29;20044;-85
2023/05/27 04:53:15;;;;;;;24.75;6.45;;;7.30;99.90;;;;;;4878345;29;20478;-85
2023/05/27 04:55:41;;;;;;;24.65;6.30;;;7.60;99.90;;;;;;4864099;29;20185;-85
2023/05/27 04:58:20;;;;;;;24.10;5.95;;;7.50;99.90;;;;;;4858232;29;20057;-84
2023/05/27 05:00:53;;;;;;;23.17;5.72;;;7.80;99.90;;;;;;4860687;29;20049;-84
2023/05/27 05:03:39;;;;;;;22.05;5.63;;;8.50;99.90;;;;;;4856545;29;21158;-84
2023/05/27 05:06:23;;;;;;;21.65;5.65;;;8.00;99.90;;;;;;4858763;29;20442;-85
2023/05/27 05:09:04;;;;;;;22.27;6.45;;;7.90;99.90;;;;;;4840765;29;20487;-84
2023/05/27 05:11:30;;;;;;;20.77;6.35;;;8.20;99.90;;;;;;4839524;29;20528;-84
2023/05/27 05:14:17;;;;;;;18.73;6.03;;;8.80;99.90;;;;;;4840721;29;20046;-84
2023/05/27 05:16:43;;;;;;;18.85;5.88;;;8.10;99.90;;;;;;4859424;29;20068;-84
2023/05/27 05:19:33;;;;;;;20.73;5.68;;;9.00;99.90;;;;;;4859232;29;20580;-85
2023/05/27 05:22:14;;;;;;;24.80;6.30;;;8.20;99.90;;;;;;4840429;29;20061;-85
2023/05/27 05:24:40;;;;;;;20.10;5.45;;;9.50;99.90;;;;;;4845585;29;20167;-85
2023/05/27 05:27:07;;;;;;;17.80;5.80;;;8.80;99.90;;;;;;4860073;29;20129;-85
2023/05/27 05:29:45;;;;;;;19.00;5.82;;;8.40;99.90;;;;;;4860081;29;20410;-85
2023/05/27 05:32:11;;;;;;;22.50;5.75;;;8.60;99.90;;;;;;4857997;29;20048;-84
2023/05/27 05:34:57;;;;;;;19.50;5.30;;;10.00;99.90;;;;;;4860161;29;20037;-85
2023/05/27 05:37:41;;;;;;;18.33;6.35;;;8.70;99.90;;;;;;4858825;29;20061;-85
2023/05/27 05:40:07;;;;;;;20.13;5.40;;;9.30;99.90;;;;;;4857825;29;20139;-85
2023/05/27 05:42:33;;;;;;;25.92;6.15;;;8.80;99.90;;;;;;4860368;29;20097;-84
2023/05/27 05:44:58;;;;;;;22.33;6.13;;;8.90;99.90;;;;;;4859157;29;20136;-85
2023/05/27 05:47:42;;;;;;;25.67;5.38;;;9.00;99.90;;;;;;4845746;29;20061;-85
2023/05/27 05:50:30;;;;;;;21.70;5.63;;;9.60;99.90;;;;;;4847760;29;20048;-88
2023/05/27 05:53:02;;;;;;;21.55;5.18;;;9.30;99.90;;;;;;4882998;23;20501;-88
2023/05/27 05:55:52;;;;;;;17.77;5.38;;;9.80;99.90;;;;;;4894643;29;20057;-84
2023/05/27 05:58:35;;;;;;;21.38;5.40;;;9.40;99.90;;;;;;4895524;29;20374;-84
2023/05/27 06:01:01;;;;;;;19.95;5.78;;;9.80;99.90;;;;;;4894963;29;20056;-83
2023/05/27 06:03:39;;;;;;;22.48;5.43;;;9.60;99.90;;;;;;4895338;29;20168;-83
2023/05/27 06:06:23;;;;;;;23.52;5.28;;;10.50;99.90;;;;;;4897146;29;20048;-83
2023/05/27 06:09:00;;;;;;;23.23;5.38;;;9.70;99.90;;;;;;4898639;29;20059;-84
2023/05/27 06:11:44;;;;;;;19.77;4.97;;;9.90;99.90;;;;;;4899004;29;20063;-83
2023/05/27 06:14:17;;;;;;;22.20;4.72;;;10.10;99.90;;;;;;4898451;29;20567;-82
2023/05/27 06:16:43;;;;;;;16.08;5.18;;;10.00;99.90;;;;;;4900565;29;20059;-81
2023/05/27 06:19:09;;;;;;;17.75;5.30;;;11.40;99.90;;;;;;4896435;29;20048;-80
2023/05/27 06:21:35;;;;;;;18.50;5.32;;;11.10;99.90;;;;;;4890106;29;20053;-80
2023/05/27 06:24:01;;;;;;;24.23;4.88;;;11.20;99.90;;;;;;4891381;29;20044;-80
2023/05/27 06:26:27;;;;;;;16.50;4.47;;;10.30;99.90;;;;;;4898637;29;20400;-81
2023/05/27 06:28:53;;;;;;;24.35;5.53;;;10.40;99.90;;;;;;4899620;29;20049;-81
2023/05/27 06:31:19;;;;;;;22.63;4.82;;;10.30;99.90;;;;;;4898109;29;20048;-81
2023/05/27 06:33:44;;;;;;;17.38;4.70;;;10.30;99.90;;;;;;4900406;29;20112;-80
2023/05/27 06:36:10;;;;;;;15.02;4.50;;;10.30;99.90;;;;;;4897675;29;20080;-81
2023/05/27 06:38:36;;;;;;;18.48;5.00;;;10.40;99.90;;;;;;4899189;29;20519;-81
2023/05/27 06:41:02;;;;;;;18.48;4.93;;;11.10;99.90;;;;;;4898802;29;20040;-81
2023/05/27 06:43:27;;;;;;;15.60;4.85;;;10.60;99.90;;;;;;4899268;29;20420;-81
2023/05/27 06:45:56;;;;;;;22.77;5.25;;;10.70;99.90;;;;;;4898362;29;20049;-84
2023/05/27 06:48:22;;;;;;;17.55;5.35;;;11.10;99.90;;;;;;4899777;29;20104;-81
2023/05/27 06:50:47;;;;;;;18.98;4.88;;;11.30;99.90;;;;;;4898121;29;20041;-81
2023/05/27 06:53:13;;;;;;;18.10;5.50;;;11.00;99.90;;;;;;4898696;29;20497;-81
2023/05/27 06:55:39;;;;;;;18.88;5.00;;;12.00;99.90;;;;;;4899884;29;20060;-81
2023/05/27 06:58:06;;;;;;;17.50;4.50;;;11.30;99.90;;;;;;4899027;29;20049;-80
2023/05/27 07:00:31;;;;;;;17.17;4.38;;;11.40;99.90;;;;;;4899527;29;20489;-81
2023/05/27 07:02:57;;;;;;;15.35;4.10;;;11.60;99.90;;;;;;4897843;29;20053;-81
2023/05/27 07:05:23;;;;;;;18.63;4.72;;;12.60;99.90;;;;;;4899119;29;20045;-81
2023/05/27 07:07:48;;;;;;;17.80;4.30;;;11.90;99.90;;;;;;4899513;29;20044;-81
2023/05/27 07:10:14;;;;;;;21.10;5.57;;;12.10;99.90;;;;;;4897106;29;20139;-81
2023/05/27 07:12:39;;;;;;;18.83;5.25;;;12.20;99.90;;;;;;4898123;29;20433;-80
2023/05/27 07:15:06;;;;;;;16.92;4.85;;;12.30;99.90;;;;;;4897911;29;20135;-81
2023/05/27 07:17:31;;;;;;;19.60;4.75;;;12.40;99.90;;;;;;4897076;29;20076;-81
2023/05/27 07:19:57;;;;;;;16.30;4.60;;;12.50;99.90;;;;;;4898517;29;20573;-81
2023/05/27 07:22:23;;;;;;;17.23;4.85;;;12.70;99.90;;;;;;4899311;29;20046;-82
2023/05/27 07:24:49;;;;;;;16.38;4.72;;;12.80;99.90;;;;;;4898810;29;20040;-82
2023/05/27 07:27:15;;;;;;;18.10;5.07;;;13.20;99.90;;;;;;4899041;29;20045;-82
2023/05/27 07:29:40;;;;;;;18.58;4.90;;;13.30;99.90;;;;;;4897922;29;20057;-81
2023/05/27 07:32:06;;;;;;;19.42;4.93;;;13.00;99.90;;;;;;4896612;29;20459;-81
2023/05/27 07:34:32;;;;;;;22.70;4.68;;;13.10;99.90;;;;;;4899349;29;20050;-81
2023/05/27 07:36:58;;;;;;;16.77;4.82;;;13.20;99.90;;;;;;4897796;29;20055;-82
2023/05/27 07:39:23;;;;;;;17.25;4.88;;;13.20;99.90;;;;;;4896677;29;20096;-82
2023/05/27 07:41:49;;;;;;;21.55;4.97;;;13.20;99.90;;;;;;4897583;29;20076;-81
2023/05/27 07:44:14;;;;;;;17.48;4.70;;;13.30;99.90;;;;;;4898778;29;20044;-81
2023/05/27 07:46:41;;;;;;;17.52;4.82;;;13.30;99.90;;;;;;4896966;29;20516;-82
2023/05/27 07:49:07;;;;;;;16.90;4.57;;;14.30;99.90;;;;;;4898779;29;20060;-81
2023/05/27 07:51:32;;;;;;;18.50;4.75;;;14.00;99.90;;;;;;4897595;29;20123;-82
2023/05/27 07:53:58;;;;;;;16.30;5.00;;;13.80;99.90;;;;;;4896755;29;20053;-82
2023/05/27 07:56:24;;;;;;;16.38;4.40;;;14.60;99.90;;;;;;4896916;29;20051;-82
2023/05/27 07:58:50;;;;;;;20.67;5.50;;;14.40;99.90;;;;;;4897196;29;20075;-82
2023/05/27 08:01:15;;;;;;;19.60;5.07;;;14.10;99.90;;;;;;4896412;29;20401;-82
2023/05/27 08:03:52;;;;;;;15.63;4.53;;;14.20;99.90;;;;;;4897365;29;20052;-82
2023/05/27 08:06:21;;;;;;;17.05;4.68;;;15.10;99.90;;;;;;4896392;29;20045;-82
2023/05/27 08:08:53;;;;;;;14.88;4.63;;;14.40;99.90;;;;;;4897316;29;20073;-82
2023/05/27 08:11:34;;;;;;;16.67;5.05;;;14.60;99.90;;;;;;4890078;29;20057;-82
2023/05/27 08:14:00;;;;;;;13.65;5.05;;;14.60;99.90;;;;;;4897529;29;20371;-82
2023/05/27 08:16:26;;;;;;;18.33;4.68;;;14.70;99.90;;;;;;4898050;29;20052;-82
2023/05/27 08:18:52;;;;;;;20.73;5.18;;;14.70;99.90;;;;;;4897102;29;20052;-82
2023/05/27 08:21:18;;;;;;;15.95;4.90;;;15.30;99.90;;;;;;4896836;29;20081;-82
2023/05/27 08:23:43;;;;;;;13.98;4.53;;;14.90;99.90;;;;;;4897140;29;20073;-82
2023/05/27 08:26:09;;;;;;;15.77;5.00;;;15.00;99.90;;;;;;4898274;29;20139;-84
2023/05/27 08:28:36;;;;;;;14.20;4.88;;;15.30;99.90;;;;;;4895218;29;20044;-84
2023/05/27 08:31:05;;;;;;;17.13;5.07;;;15.80;99.90;;;;;;4896765;29;20053;-83
2023/05/27 08:33:34;;;;;;;16.13;4.82;;;15.50;99.90;;;;;;4898398;29;20063;-84
2023/05/27 08:36:00;;;;;;;19.77;4.63;;;15.60;99.90;;;;;;4896483;29;20049;-83
2023/05/27 08:38:25;;;;;;;15.27;5.00;;;15.60;99.90;;;;;;4897926;29;20453;-82
2023/05/27 08:40:56;;;;;;;19.05;4.93;;;15.90;99.90;;;;;;4898143;29;20087;-83
2023/05/27 08:43:22;;;;;;;16.67;5.82;;;15.80;99.90;;;;;;4888302;29;20037;-82
2023/05/27 08:45:49;;;;;;;13.95;4.55;;;16.00;99.90;;;;;;4891064;29;20072;-82
2023/05/27 08:48:15;;;;;;;14.60;4.55;;;16.10;99.90;;;;;;4887348;29;20048;-83
2023/05/27 08:50:41;;;;;;;14.85;4.57;;;16.40;99.90;;;;;;4887400;29;20409;-83
2023/05/27 08:53:08;;;;;;;18.00;4.97;;;16.20;99.90;;;;;;4885912;29;20502;-82
2023/05/27 08:55:38;;;;;;;14.68;4.70;;;16.30;99.90;;;;;;4886944;29;20185;-83
2023/05/27 08:58:06;;;;;;;16.25;4.85;;;16.40;99.90;;;;;;4885242;29;20553;-83
2023/05/27 09:00:32;;;;;;;18.73;4.45;;;16.50;99.90;;;;;;4877939;29;20481;-83
2023/05/27 09:02:59;;;;;;;18.52;5.05;;;16.60;99.90;;;;;;4878584;29;20051;-83
2023/05/27 09:05:26;;;;;;;17.40;5.35;;;16.70;99.90;;;;;;4877473;29;20497;-82
2023/05/27 09:08:12;;;;;;;15.88;5.43;;;17.20;99.90;;;;;;4883083;29;20064;-83
2023/05/27 09:10:38;;;;;;;15.73;4.65;;;17.20;99.90;;;;;;4886429;29;20049;-83
2023/05/27 09:13:26;;;;;;;18.42;5.25;;;17.20;99.90;;;;;;4885685;29;20037;-84
2023/05/27 09:16:10;;;;;;;17.13;4.75;;;18.00;99.90;;;;;;4887745;29;20040;-83
2023/05/27 09:18:36;;;;;;;14.73;4.78;;;17.20;99.90;;;;;;4886494;29;20052;-83
2023/05/27 09:21:03;;;;;;;15.57;4.70;;;17.30;99.90;;;;;;4887933;29;20446;-82
2023/05/27 09:23:28;;;;;;;16.63;5.55;;;17.40;99.90;;;;;;4886413;29;20497;-83
2023/05/27 09:25:54;;;;;;;18.05;4.95;;;17.90;99.90;;;;;;4887099;29;20048;-83
2023/05/27 09:28:24;;;;;;;18.20;4.80;;;17.60;99.90;;;;;;4884496;29;20045;-81
2023/05/27 09:31:00;;;;;;;18.58;4.95;;;17.70;99.90;;;;;;4889130;29;20883;-81
2023/05/27 09:33:26;;;;;;;19.17;4.97;;;17.60;99.90;;;;;;4884901;29;20056;-82
2023/05/27 09:35:52;;;;;;;16.50;4.30;;;17.80;99.90;;;;;;4883504;29;20069;-82
2023/05/27 09:38:18;;;;;;;14.02;4.78;;;18.70;99.90;;;;;;4885041;29;20443;-81
2023/05/27 09:40:44;;;;;;;16.15;4.68;;;18.10;99.90;;;;;;4890648;29;20048;-81
2023/05/27 09:43:14;;;;;;;15.32;4.80;;;18.00;99.90;;;;;;4891311;29;20045;-80
2023/05/27 09:45:43;;;;;;;19.70;4.97;;;18.10;99.90;;;;;;4899347;29;20133;-80
2023/05/27 09:48:11;;;;;;;15.40;4.95;;;18.30;99.90;;;;;;4900480;29;20427;-80
2023/05/27 09:50:38;;;;;;;16.10;4.78;;;18.30;99.90;;;;;;4901178;29;20040;-81
2023/05/27 09:53:07;;;;;;;16.65;5.20;;;18.20;99.90;;;;;;4896591;29;20051;-82
2023/05/27 09:55:33;;;;;;;16.30;5.38;;;18.40;99.90;;;;;;4893205;29;20124;-82
2023/05/27 09:58:00;;;;;;;17.15;5.15;;;18.40;99.90;;;;;;4899415;29;20049;-82
2023/05/27 10:00:28;;;;;;;17.05;5.10;;;18.50;99.90;;;;;;4899822;29;20116;-82
2023/05/27 10:02:57;;;;;;;18.17;5.30;;;18.50;99.90;;;;;;4899516;29;20104;-82
2023/05/27 10:05:23;;;;;;;20.73;5.07;;;19.30;99.90;;;;;;4899044;29;20048;-81
2023/05/27 10:07:48;;;;;;;18.73;5.03;;;18.60;99.90;;;;;;4897862;29;20051;-81
2023/05/27 10:10:21;;;;;;;15.20;4.53;;;18.80;99.90;;;;;;4900192;29;20401;-81
2023/05/27 10:12:49;;;;;;;16.60;5.00;;;18.90;99.90;;;;;;4898490;29;20047;-81
2023/05/27 10:15:32;;;;;;;12.75;4.53;;;19.00;99.90;;;;;;4898758;29;20049;-82
2023/05/27 10:18:05;;;;;;;17.13;5.63;;;19.30;99.90;;;;;;4898754;29;20044;-82
2023/05/27 10:20:32;;;;;;;;;;;19.40;99.90;;;;;;4916410;29;20086;-82
2023/05/27 10:23:12;;;;;;;16.75;5.60;;;19.80;99.90;;;;;;4916739;29;20394;-83
2023/05/27 10:25:39;;;;;;;17.70;5.15;;;19.50;99.90;;;;;;4895010;29;20043;-82
2023/05/27 10:28:05;;;;;;;15.60;5.22;;;19.80;99.90;;;;;;4889659;29;20606;-82
2023/05/27 10:30:45;;;;;;;19.00;6.05;;;19.90;99.90;;;;;;4898832;29;20135;-83
2023/05/27 10:33:12;;;;;;;17.20;4.80;;;20.00;99.90;;;;;;4898737;29;20056;-81
2023/05/27 10:35:49;;;;;;;16.17;5.32;;;20.30;99.90;;;;;;4898477;29;20053;-83
2023/05/27 10:38:18;;;;;;;15.10;4.93;;;20.40;99.70;;;;;;4898798;29;20135;-84
2023/05/27 10:40:45;;;;;;;17.52;5.38;;;20.50;99.90;;;;;;4900227;29;20073;-82
2023/05/27 10:43:18;;;;;;;14.23;5.13;;;20.30;99.40;;;;;;4897562;29;20057;-82
2023/05/27 10:45:45;;;;;;;14.93;4.68;;;20.40;99.40;;;;;;4898793;29;20370;-83
2023/05/27 10:48:28;;;;;;;15.80;4.95;;;20.70;99.90;;;;;;4897699;29;20477;-83
2023/05/27 10:50:57;;;;;;;15.93;5.18;;;20.60;99.40;;;;;;4901635;29;20048;-82
2023/05/27 10:53:26;;;;;;;12.93;4.72;;;20.80;99.20;;;;;;4900076;29;20124;-83
2023/05/27 10:55:51;;;;;;;13.85;4.40;;;21.60;99.40;;;;;;4899256;29;20052;-83
2023/05/27 10:58:19;;;;;;;15.35;4.65;;;21.00;99.20;;;;;;4900024;29;20541;-83
2023/05/27 11:00:48;;;;;;;14.85;4.88;;;21.10;98.80;;;;;;4898901;29;20044;-84
2023/05/27 11:03:23;;;;;;;14.98;4.63;;;21.40;98.40;;;;;;4898000;29;20056;-83
2023/05/27 11:06:02;;;;;;;15.80;5.18;;;21.20;97.80;;;;;;4899810;29;20051;-82
2023/05/27 11:08:29;;;;;;;14.88;5.07;;;21.10;97.50;;;;;;4899523;29;20087;-82
2023/05/27 11:11:13;;;;;;;18.23;4.82;;;21.10;97.80;;;;;;4897985;29;20052;-83
2023/05/27 11:13:43;;;;;;;15.43;4.80;;;21.30;97.80;;;;;;4900203;29;20045;-82
2023/05/27 11:16:11;;;;;;;13.45;5.00;;;21.40;97.60;;;;;;4895699;29;20051;-84
2023/05/27 11:18:46;;;;;;;13.60;4.55;;;21.60;97.50;;;;;;4895555;29;20390;-80
2023/05/27 11:21:15;;;;;;;15.25;5.20;;;21.80;97.80;;;;;;4879565;29;20059;-80
2023/05/27 11:23:47;;;;;;;17.73;4.97;;;21.80;97.60;;;;;;4912175;29;20048;-84
2023/05/27 11:26:20;;;;;;;13.10;4.35;;;22.00;97.50;;;;;;4892411;29;20044;-83
2023/05/27 11:28:50;;;;;;;14.32;5.50;;;22.10;97.20;;;;;;4889428;29;20051;-81
2023/05/27 11:31:17;;;;;;;11.63;4.05;;;22.20;97.40;;;;;;4887866;29;20052;-81
2023/05/27 11:33:44;;;;;;;15.63;4.88;;;22.10;96.90;;;;;;4887570;29;20052;-82
2023/05/27 11:36:14;;;;;;;15.57;4.60;;;22.30;96.40;;;;;;4888738;29;20045;-81
2023/05/27 11:38:53;;;;;;;14.48;4.80;;;22.40;95.80;;;;;;4888415;29;20045;-80
2023/05/27 11:41:20;;;;;;;13.32;5.13;;;22.40;96.40;;;;;;4889662;29;20567;-81
2023/05/27 11:44:10;;;;;;;13.23;5.25;;;22.40;95.90;;;;;;4887442;29;20052;-80
2023/05/27 11:46:37;;;;;;;15.57;5.03;;;22.40;95.20;;;;;;4889271;29;20057;-80
2023/05/27 11:49:08;;;;;;;14.50;4.80;;;22.30;95.50;;;;;;4888530;29;20531;-80
2023/05/27 11:51:41;;;;;;;13.80;4.80;;;22.20;95.20;;;;;;4889192;29;20440;-80
2023/05/27 11:54:07;;;;;;;14.60;5.25;;;22.30;95.30;;;;;;4888875;29;20061;-81
2023/05/27 11:56:33;;;;;;;12.73;5.10;;;22.40;95.00;;;;;;4889060;29;20154;-81
2023/05/27 11:58:59;;;;;;;13.00;4.05;;;22.30;94.20;;;;;;4888431;29;20049;-80
2023/05/27 12:01:28;;;;;;;14.60;4.72;;;22.40;94.60;;;;;;4889982;29;20067;-78
2023/05/27 12:03:53;;;;;;;11.73;4.40;;;22.60;94.90;;;;;;4888309;29;20048;-80
2023/05/27 12:06:20;;;;;;;15.30;4.88;;;22.60;94.40;;;;;;4886289;29;20041;-79
2023/05/27 12:08:45;;;;;;;13.63;4.20;;;22.60;94.30;;;;;;4888827;29;20112;-80
2023/05/27 12:11:11;;;;;;;15.13;5.22;;;23.00;94.90;;;;;;4896165;29;20412;-80
2023/05/27 12:13:37;;;;;;;14.73;4.57;;;23.20;94.30;;;;;;4898289;29;20510;-81
2023/05/27 12:16:05;;;;;;;14.35;5.03;;;23.20;94.10;;;;;;4897342;29;20044;-79
2023/05/27 12:18:31;;;;;;;14.57;4.60;;;23.30;94.10;;;;;;4899051;29;20064;-79
2023/05/27 12:20:56;;;;;;;13.68;4.55;;;23.30;93.80;;;;;;4896788;29;20048;-81
2023/05/27 12:23:22;;;;;;;16.05;4.57;;;23.00;93.60;;;;;;4896788;29;20059;-80
2023/05/27 12:25:47;;;;;;;15.52;4.82;;;23.30;93.60;;;;;;4897630;29;20040;-80
2023/05/27 12:28:13;;;;;;;13.90;4.68;;;23.50;93.60;;;;;;4896263;29;20048;-80
2023/05/27 12:30:39;;;;;;;14.23;4.40;;;23.50;93.50;;;;;;4898218;29;20104;-80
2023/05/27 12:33:05;;;;;;;14.93;4.68;;;23.80;93.20;;;;;;4898353;29;20052;-81
2023/05/27 12:35:34;;;;;;;16.98;4.47;;;23.60;92.80;;;;;;4896605;29;20045;-80
2023/05/27 12:38:00;;;;;;;17.98;4.57;;;23.70;93.10;;;;;;4896823;29;20074;-80
2023/05/27 12:40:26;;;;;;;14.52;4.50;;;23.70;93.20;;;;;;4896244;29;20067;-81
2023/05/27 12:42:52;;;;;;;12.98;4.20;;;23.90;93.00;;;;;;4897988;29;20438;-81
2023/05/27 12:45:18;;;;;;;13.70;4.72;;;23.90;92.90;;;;;;4897597;29;20084;-80
2023/05/27 12:47:43;;;;;;;13.55;4.60;;;23.60;91.90;;;;;;4895871;29;20520;-81
2023/05/27 12:50:09;;;;;;;12.80;4.40;;;23.50;92.10;;;;;;4896345;29;20486;-82
2023/05/27 12:52:38;;;;;;;13.70;4.53;;;23.60;92.70;;;;;;4898006;29;20055;-82
2023/05/27 12:55:29;;;;;;;13.85;4.75;;;23.70;92.60;;;;;;4895854;29;20057;-86
2023/05/27 12:57:55;;;;;;;14.05;4.30;;;23.90;92.10;;;;;;4895107;29;20048;-82
2023/05/27 13:04:18;;;;;;;14.32;4.40;;;24.50;92.80;;;;;;4912760;29;20078;-82
2023/05/27 13:06:43;;;;;;;16.40;4.70;;;24.60;91.70;;;;;;4915428;29;20048;-82
2023/05/27 13:09:19;;;;;;;15.30;4.93;;;24.80;92.20;;;;;;4914143;29;20107;-81
2023/05/27 13:11:46;;;;;;;12.10;3.92;;;24.60;92.00;;;;;;4915823;29;20498;-82
2023/05/27 13:14:12;;;;;;;14.13;4.35;;;24.80;92.40;;;;;;4905264;29;20087;-82
2023/05/27 13:16:49;;;;;;;13.93;4.25;;;24.80;91.70;;;;;;4876933;29;20486;-82
2023/05/27 13:19:15;;;;;;;13.00;4.38;;;24.70;91.20;;;;;;4878889;29;20041;-82
2023/05/27 13:21:41;;;;;;;12.77;4.45;;;24.90;91.60;;;;;;4877810;29;20124;-80
2023/05/27 13:24:07;;;;;;;12.93;4.20;;;25.20;91.80;;;;;;4878292;29;20486;-82
2023/05/27 13:26:51;;;;;;;12.93;4.70;;;25.40;91.60;;;;;;4880156;29;20057;-81
2023/05/27 13:29:16;;;;;;;13.95;4.38;;;25.30;90.90;;;;;;4886830;29;20493;-82
2023/05/27 13:31:55;;;;;;;14.85;4.55;;;25.20;91.20;;;;;;4895644;29;20055;-81